Time;durP1;ratioP1;P1;durP2;ratioP2;P2;SDS_P1;SDS_P2;PMS_P1;PMS_P2;Temp;Humidity;BMP_temperature;BMP_pressure;BME280_temperature;BME280_humidity;BME280_pressure;Samples;Min_cycle;Max_cycle;Signal;HPM_P1;HPM_P2
2021/09/09 00:01:59;;;;;;;;;;;25.00;99.90;;;;;;1848257;76;20187;-94
2021/09/09 00:04:49;;;;;;;;;;;25.00;99.90;;;;;;1862913;76;20148;-93
2021/09/09 00:07:47;;;;;;;;;;;25.00;99.90;;;;;;1875051;74;20195;-93
2021/09/09 00:10:22;;;;;;;;;;;25.00;99.90;;;;;;1912089;74;20254;-94
2021/09/09 00:13:14;;;;;;;;;;;25.00;99.90;;;;;;1930910;74;20204;-92
2021/09/09 00:16:08;;;;;;;;;;;25.00;99.90;;;;;;1877416;70;20220;-94
2021/09/09 00:19:05;;;;;;;;;;;25.10;99.90;;;;;;1852727;76;20164;-93
2021/09/09 00:22:20;;;;;;;;;;;25.10;99.90;;;;;;1880330;76;20234;-93
2021/09/09 00:24:30;;;;;;;;;;;25.10;99.90;;;;;;1861622;75;20137;-95
2021/09/09 00:27:12;;;;;;;;;;;25.10;99.90;;;;;;1863241;77;20170;-93
2021/09/09 00:29:51;;;;;;;;;;;25.10;99.90;;;;;;1867887;76;20228;-93
2021/09/09 00:32:23;;;;;;;;;;;25.20;99.90;;;;;;1874984;76;20134;-94
2021/09/09 00:34:53;;;;;;;;;;;25.20;99.90;;;;;;1869035;76;20146;-93
2021/09/09 00:43:21;;;;;;;;;;;25.30;99.90;;;;;;1862720;71;20160;-93
2021/09/09 00:45:56;;;;;;;;;;;25.30;99.90;;;;;;1896390;75;20196;-93
2021/09/09 00:48:35;;;;;;;;;;;25.30;99.90;;;;;;1896398;73;20150;-93
2021/09/09 00:51:20;;;;;;;;;;;25.30;99.90;;;;;;1902550;75;20194;-94
2021/09/09 00:54:09;;;;;;;;;;;25.30;99.90;;;;;;1902523;75;20103;-93
2021/09/09 00:56:59;;;;;;;;;;;25.30;99.90;;;;;;1901592;74;20228;-95
2021/09/09 00:59:48;;;;;;;;;;;25.30;99.90;;;;;;1905121;73;20131;-90
2021/09/09 01:02:25;;;;;;;;;;;25.30;99.90;;;;;;1870554;77;20168;-94
2021/09/09 01:05:14;;;;;;;;;;;25.40;99.90;;;;;;1857381;76;20142;-92
2021/09/09 01:08:05;;;;;;;;;;;25.40;99.90;;;;;;1860444;76;20153;-92
2021/09/09 01:11:03;;;;;;;;;;;25.40;99.90;;;;;;1858909;76;20143;-93
2021/09/09 01:13:39;;;;;;;;;;;25.40;99.90;;;;;;1873140;76;20196;-96
2021/09/09 01:16:21;;;;;;;;;;;25.40;99.90;;;;;;1870374;76;20205;-94
2021/09/09 01:18:53;;;;;;;;;;;25.50;99.90;;;;;;1850422;77;20129;-93
2021/09/09 01:21:26;;;;;;;;;;;25.40;99.90;;;;;;1862281;76;20134;-95
2021/09/09 01:24:00;;;;;;;;;;;25.40;99.90;;;;;;1862373;76;20168;-93
2021/09/09 01:26:35;;;;;;;;;;;25.40;99.90;;;;;;1868371;75;20246;-94
2021/09/09 01:29:08;;;;;;;;;;;25.40;99.90;;;;;;1864150;76;20132;-95
2021/09/09 01:31:47;;;;;;;;;;;25.40;99.90;;;;;;1867971;76;20153;-94
2021/09/09 01:34:18;;;;;;;;;;;25.40;99.90;;;;;;1867743;76;20211;-94
2021/09/09 01:36:52;;;;;;;;;;;25.40;99.90;;;;;;1865176;76;20197;-96
2021/09/09 01:39:23;;;;;;;;;;;25.40;99.90;;;;;;1863417;76;20215;-95
2021/09/09 01:42:03;;;;;;;;;;;25.40;99.90;;;;;;1866010;76;20235;-95
2021/09/09 01:44:33;;;;;;;;;;;25.40;99.90;;;;;;1868110;76;20204;-83
2021/09/09 01:47:03;;;;;;;;;;;25.40;99.90;;;;;;1863306;76;20570;-82
2021/09/09 01:49:33;;;;;;;;;;;25.40;99.90;;;;;;1864413;76;20177;-77
2021/09/09 01:52:05;;;;;;;;;;;25.40;99.90;;;;;;1870520;76;20163;-80
2021/09/09 01:54:35;;;;;;;;;;;25.40;99.90;;;;;;1866804;76;20208;-78
2021/09/09 01:57:05;;;;;;;;;;;25.30;99.90;;;;;;1865923;75;20204;-77
2021/09/09 01:59:34;;;;;;;;;;;25.30;99.90;;;;;;1868091;76;20203;-79
2021/09/09 02:02:04;;;;;;;;;;;25.40;99.90;;;;;;1905024;73;20141;-78
2021/09/09 02:04:34;;;;;;;;;;;25.40;99.90;;;;;;1927063;73;20493;-77
2021/09/09 02:07:05;;;;;;;;;;;25.30;99.90;;;;;;1933930;73;20216;-77
2021/09/09 02:09:34;;;;;;;;;;;25.30;99.90;;;;;;1927781;73;20224;-78
2021/09/09 02:12:04;;;;;;;;;;;25.30;99.90;;;;;;1924369;73;20115;-77
2021/09/09 02:14:33;;;;;;;;;;;25.30;99.90;;;;;;1923696;73;20237;-77
2021/09/09 02:17:03;;;;;;;;;;;25.30;99.90;;;;;;1934728;73;20434;-78
2021/09/09 02:19:36;;;;;;;;;;;25.30;99.90;;;;;;1932250;73;20312;-79
2021/09/09 02:22:06;;;;;;;;;;;25.30;99.90;;;;;;1928020;73;20394;-78
2021/09/09 02:24:43;;;;;;;;;;;25.20;99.90;;;;;;1929388;73;20195;-78
2021/09/09 02:27:08;;;;;;;;;;;25.20;99.90;;;;;;1929760;72;20149;-78
2021/09/09 02:29:38;;;;;;;;;;;25.30;99.90;;;;;;1887887;74;20207;-78
2021/09/09 02:32:08;;;;;;;;;;;25.20;99.90;;;;;;1889716;74;20210;-76
2021/09/09 02:34:38;;;;;;;;;;;25.20;99.90;;;;;;1889076;74;20268;-77
2021/09/09 02:37:07;;;;;;;;;;;25.20;99.90;;;;;;1927578;73;20208;-79
2021/09/09 02:39:40;;;;;;;;;;;25.20;99.90;;;;;;1922509;73;20149;-79
2021/09/09 02:42:08;;;;;;;;;;;25.10;99.90;;;;;;1928131;73;20197;-78
2021/09/09 02:44:38;;;;;;;;;;;25.10;99.90;;;;;;1892950;74;20214;-76
2021/09/09 02:47:08;;;;;;;;;;;25.10;99.90;;;;;;1882406;74;20238;-78
2021/09/09 02:49:38;;;;;;;;;;;25.10;99.90;;;;;;1885523;74;20204;-77
2021/09/09 02:52:07;;;;;;;;;;;25.00;99.90;;;;;;1888132;74;20519;-77
2021/09/09 02:54:37;;;;;;;;;;;24.90;99.90;;;;;;1921240;73;20225;-78
2021/09/09 02:57:07;;;;;;;;;;;24.80;99.90;;;;;;1929254;73;20221;-77
2021/09/09 02:59:36;;;;;;;;;;;24.80;99.90;;;;;;1887055;74;20156;-77
2021/09/09 03:02:06;;;;;;;;;;;24.80;99.90;;;;;;1894240;74;20477;-77
2021/09/09 03:04:36;;;;;;;;;;;24.70;99.90;;;;;;1900237;73;20559;-77
2021/09/09 03:07:06;;;;;;;;;;;24.70;99.90;;;;;;1897455;73;20245;-76
2021/09/09 03:09:35;;;;;;;;;;;24.60;99.90;;;;;;1908558;73;20366;-76
2021/09/09 03:12:05;;;;;;;;;;;24.60;99.90;;;;;;1906801;74;20309;-75
2021/09/09 03:14:35;;;;;;;;;;;24.60;99.90;;;;;;1900314;73;20478;-77
2021/09/09 03:17:20;;;;;;;;;;;24.60;99.90;;;;;;1899619;74;20212;-77
2021/09/09 03:19:56;;;;;;;;;;;24.60;99.90;;;;;;1895446;73;20545;-78
2021/09/09 03:22:26;;;;;;;;;;;24.60;99.90;;;;;;1902656;73;20230;-77
2021/09/09 03:24:55;;;;;;;;;;;24.60;99.90;;;;;;1898834;73;20193;-77
2021/09/09 03:27:25;;;;;;;;;;;24.50;99.90;;;;;;1865945;75;20184;-76
2021/09/09 03:30:07;;;;;;;;;;;;;;;;;;;;;
2021/09/09 03:32:33;;;;;;;;;;;24.50;99.90;;;;;;1894325;73;20367;-77
2021/09/09 03:35:02;;;;;;;;;;;24.50;99.90;;;;;;1902829;73;20198;-78
2021/09/09 03:37:32;;;;;;;;;;;24.50;99.90;;;;;;1907091;74;20268;-77
2021/09/09 03:40:02;;;;;;;;;;;24.60;99.90;;;;;;1911300;74;20176;-78
2021/09/09 03:42:37;;;;;;;;;;;24.60;99.90;;;;;;1906644;73;20236;-78
2021/09/09 03:45:26;;;;;;;;;;;24.60;99.90;;;;;;1907149;73;20189;-78
2021/09/09 03:47:55;;;;;;;;;;;24.60;99.90;;;;;;1871572;76;20163;-78
2021/09/09 03:50:25;;;;;;;;;;;24.60;99.90;;;;;;1889536;73;20253;-79
2021/09/09 03:52:55;;;;;;;;;;;24.60;99.90;;;;;;1900967;74;20236;-78
2021/09/09 03:55:24;;;;;;;;;;;24.60;99.90;;;;;;1895356;74;20162;-79
2021/09/09 03:57:54;;;;;;;;;;;24.60;99.90;;;;;;1907217;74;20165;-78
2021/09/09 04:00:24;;;;;;;;;;;24.60;99.90;;;;;;1893070;74;20177;-79
2021/09/09 04:02:53;;;;;;;;;;;24.60;99.90;;;;;;1898910;74;20150;-80
2021/09/09 04:05:23;;;;;;;;;;;24.60;99.90;;;;;;1907700;75;20166;-80
2021/09/09 04:07:52;;;;;;;;;;;24.60;99.90;;;;;;1907575;73;20176;-80
2021/09/09 04:10:22;;;;;;;;;;;24.60;99.90;;;;;;1907412;74;20177;-78
2021/09/09 04:12:51;;;;;;;;;;;24.60;99.90;;;;;;1906498;74;20292;-77
2021/09/09 04:15:21;;;;;;;;;;;24.60;99.90;;;;;;1893541;74;20248;-78
2021/09/09 04:17:51;;;;;;;;;;;24.60;99.90;;;;;;1894802;74;20501;-78
2021/09/09 04:20:20;;;;;;;;;;;24.70;99.90;;;;;;1903498;74;20131;-77
2021/09/09 04:22:50;;;;;;;;;;;24.70;99.90;;;;;;1908072;74;20170;-77
2021/09/09 04:25:20;;;;;;;;;;;24.70;99.90;;;;;;1918684;74;20118;-77
2021/09/09 04:27:49;;;;;;;;;;;24.70;99.90;;;;;;1899983;73;20539;-77
2021/09/09 04:30:19;;;;;;;;;;;24.80;99.90;;;;;;1890581;73;20158;-77
2021/09/09 04:32:48;;;;;;;;;;;24.80;99.90;;;;;;1902612;73;20162;-77
2021/09/09 04:35:18;;;;;;;;;;;24.80;99.90;;;;;;1905523;74;20255;-76
2021/09/09 04:37:47;;;;;;;;;;;24.80;99.90;;;;;;1903272;74;20179;-77
2021/09/09 04:40:17;;;;;;;;;;;24.80;99.90;;;;;;1898118;74;20161;-76
2021/09/09 04:42:46;;;;;;;;;;;24.80;99.90;;;;;;1825341;77;20140;-77
2021/09/09 04:45:16;;;;;;;;;;;24.80;99.90;;;;;;1898255;74;20414;-77
2021/09/09 04:47:48;;;;;;;;;;;24.80;99.90;;;;;;1900497;75;20177;-77
2021/09/09 04:50:18;;;;;;;;;;;24.80;99.90;;;;;;1897621;74;20194;-77
2021/09/09 04:52:48;;;;;;;;;;;24.80;99.90;;;;;;1896461;74;20460;-76
2021/09/09 04:55:17;;;;;;;;;;;24.80;99.90;;;;;;1896340;74;20484;-77
2021/09/09 04:57:47;;;;;;;;;;;24.80;99.90;;;;;;1904443;74;21088;-77
2021/09/09 05:00:17;;;;;;;;;;;24.90;99.90;;;;;;1896557;74;20135;-76
2021/09/09 05:02:46;;;;;;;;;;;24.90;99.90;;;;;;1903654;74;20130;-76
2021/09/09 05:05:16;;;;;;;;;;;24.90;99.90;;;;;;1927387;73;20121;-76
2021/09/09 05:07:46;;;;;;;;;;;25.00;99.90;;;;;;1915338;73;20428;-76
2021/09/09 05:10:16;;;;;;;;;;;25.00;99.90;;;;;;1894461;74;20132;-76
2021/09/09 05:12:45;;;;;;;;;;;25.00;99.90;;;;;;1904389;75;20130;-76
2021/09/09 05:15:15;;;;;;;;;;;25.00;99.90;;;;;;1902531;75;20491;-76
2021/09/09 05:17:45;;;;;;;;;;;25.10;99.90;;;;;;1901768;75;20390;-76
2021/09/09 05:20:15;;;;;;;;;;;25.10;99.90;;;;;;1919843;73;20126;-76
2021/09/09 05:22:45;;;;;;;;;;;25.20;99.90;;;;;;1924271;75;20122;-76
2021/09/09 05:25:14;;;;;;;;;;;25.20;99.90;;;;;;1923088;73;20141;-78
2021/09/09 05:27:44;;;;;;;;;;;25.20;99.90;;;;;;1919630;73;20172;-78
2021/09/09 05:30:14;;;;;;;;;;;25.20;99.90;;;;;;1914235;75;20213;-77
2021/09/09 05:32:44;;;;;;;;;;;25.20;99.90;;;;;;1919996;73;20445;-75
2021/09/09 05:35:14;;;;;;;;;;;25.20;99.90;;;;;;1896273;75;20178;-76
2021/09/09 05:37:43;;;;;;;;;;;25.30;99.90;;;;;;1879754;75;20168;-77
2021/09/09 05:40:13;;;;;;;;;;;25.30;99.90;;;;;;1921095;73;20126;-76
2021/09/09 05:42:43;;;;;;;;;;;25.30;99.90;;;;;;1896090;74;20854;-76
2021/09/09 05:45:12;;;;;;;;;;;25.40;99.90;;;;;;1921214;73;20507;-77
2021/09/09 05:47:42;;;;;;;;;;;25.40;99.90;;;;;;1885556;75;20161;-77
2021/09/09 05:50:12;;;;;;;;;;;25.50;99.90;;;;;;1923348;73;20130;-77
2021/09/09 05:52:41;;;;;;;;;;;25.60;99.90;;;;;;1885287;75;20136;-76
2021/09/09 05:55:11;;;;;;;;;;;25.70;99.90;;;;;;1936567;73;20499;-76
2021/09/09 05:57:40;;;;;;;;;;;25.70;99.90;;;;;;1922718;73;20161;-77
2021/09/09 06:00:11;;;;;;;;;;;25.80;99.90;;;;;;1924493;73;20499;-77
2021/09/09 06:02:44;;;;;;;;;;;25.90;99.90;;;;;;1915889;74;20138;-76
2021/09/09 06:05:16;;;;;;;;;;;25.90;99.90;;;;;;1908818;74;20190;-76
2021/09/09 06:07:46;;;;;;;;;;;26.00;99.90;;;;;;1870780;75;20181;-76
2021/09/09 06:10:16;;;;;;;;;;;26.10;99.90;;;;;;1883049;75;20418;-78
2021/09/09 06:12:45;;;;;;;;;;;26.10;99.90;;;;;;1890709;75;20178;-78
2021/09/09 06:15:16;;;;;;;;;;;26.10;99.90;;;;;;1909936;74;20199;-76
2021/09/09 06:17:45;;;;;;;;;;;26.20;99.90;;;;;;1875937;75;20196;-77
2021/09/09 06:20:15;;;;;;;;;;;26.20;99.90;;;;;;1889123;75;20402;-77
2021/09/09 06:22:45;;;;;;;;;;;26.20;99.90;;;;;;1873655;75;20245;-76
2021/09/09 06:25:15;;;;;;;;;;;26.20;99.90;;;;;;1859740;75;20157;-76
2021/09/09 06:27:44;;;;;;;;;;;26.20;99.90;;;;;;1878087;75;20133;-76
2021/09/09 06:30:14;;;;;;;;;;;26.20;99.90;;;;;;1887490;75;20173;-77
2021/09/09 06:32:43;;;;;;;;;;;26.20;99.90;;;;;;1881357;75;20169;-77
2021/09/09 06:35:13;;;;;;;;;;;26.20;99.90;;;;;;1886656;75;20170;-78
2021/09/09 06:37:43;;;;;;;;;;;26.20;99.90;;;;;;1900717;75;20143;-76
2021/09/09 06:40:12;;;;;;;;;;;26.30;99.90;;;;;;1901792;75;20165;-76
2021/09/09 06:42:42;;;;;;;;;;;26.30;99.90;;;;;;1901737;75;20158;-76
2021/09/09 06:45:12;;;;;;;;;;;26.30;99.90;;;;;;1901712;75;20162;-78
2021/09/09 06:47:41;;;;;;;;;;;26.30;99.90;;;;;;1901671;75;20150;-78
2021/09/09 06:50:30;;;;;;;;;;;26.30;99.90;;;;;;1902750;75;20183;-81
2021/09/09 06:53:04;;;;;;;;;;;26.40;99.90;;;;;;1902380;75;20154;-79
2021/09/09 06:55:43;;;;;;;;;;;26.50;99.90;;;;;;1873965;76;20148;-77
2021/09/09 06:58:12;;;;;;;;;;;26.50;99.90;;;;;;1902970;75;20114;-77
2021/09/09 07:00:43;;;;;;;;;;;26.60;99.90;;;;;;1902301;75;20126;-77
2021/09/09 07:03:13;;;;;;;;;;;26.60;99.90;;;;;;1888037;74;20163;-77
2021/09/09 07:05:43;;;;;;;;;;;26.60;99.90;;;;;;1895957;75;20126;-78
2021/09/09 07:08:13;;;;;;;;;;;26.60;99.90;;;;;;1902360;75;20150;-81
2021/09/09 07:10:42;;;;;;;;;;;26.70;99.90;;;;;;1873808;76;20439;-81
2021/09/09 07:13:17;;;;;;;;;;;26.90;99.90;;;;;;1894944;75;20121;-79
2021/09/09 07:15:45;;;;;;;;;;;26.90;99.90;;;;;;1868956;74;20389;-79
2021/09/09 07:18:15;;;;;;;;;;;27.00;99.90;;;;;;1869713;77;20153;-80
2021/09/09 07:20:45;;;;;;;;;;;27.00;99.90;;;;;;1876840;76;20171;-78
2021/09/09 07:23:14;;;;;;;;;;;27.00;99.90;;;;;;1841876;78;20398;-80
2021/09/09 07:25:44;;;;;;;;;;;27.10;99.90;;;;;;1880258;76;20129;-80
2021/09/09 07:28:14;;;;;;;;;;;27.10;99.90;;;;;;1871455;76;20152;-81
2021/09/09 07:30:44;;;;;;;;;;;27.20;99.90;;;;;;1906909;75;20188;-78
2021/09/09 07:33:13;;;;;;;;;;;27.30;99.90;;;;;;1874432;76;20262;-79
2021/09/09 07:35:43;;;;;;;;;;;27.30;99.90;;;;;;1874410;77;20345;-80
2021/09/09 07:38:13;;;;;;;;;;;27.40;99.90;;;;;;1840328;77;20139;-78
2021/09/09 07:40:42;;;;;;;;;;;27.50;99.90;;;;;;1897378;75;20177;-79
2021/09/09 07:43:12;;;;;;;;;;;27.70;99.90;;;;;;1870653;76;20199;-79
2021/09/09 07:45:42;;;;;;;;;;;27.80;99.90;;;;;;1899468;75;20422;-79
2021/09/09 07:48:12;;;;;;;;;;;27.90;99.90;;;;;;1901929;75;20724;-80
2021/09/09 07:50:44;;;;;;;;;;;27.90;99.90;;;;;;1901900;75;20126;-79
2021/09/09 07:53:12;;;;;;;;;;;28.00;99.90;;;;;;1902152;75;20127;-81
2021/09/09 07:55:42;;;;;;;;;;;28.00;99.90;;;;;;1901764;75;20131;-79
2021/09/09 07:58:11;;;;;;;;;;;28.00;99.90;;;;;;1902263;75;20150;-79
2021/09/09 08:00:41;;;;;;;;;;;28.00;99.90;;;;;;1907352;75;20145;-80
2021/09/09 08:03:11;;;;;;;;;;;28.00;99.90;;;;;;1907413;75;20149;-79
2021/09/09 08:05:41;;;;;;;;;;;28.00;99.90;;;;;;1927645;73;20134;-80
2021/09/09 08:08:10;;;;;;;;;;;28.10;99.90;;;;;;1882247;75;20166;-81
2021/09/09 08:10:40;;;;;;;;;;;28.10;99.90;;;;;;1899535;76;20165;-81
2021/09/09 08:13:10;;;;;;;;;;;28.10;99.90;;;;;;1899209;76;20139;-81
2021/09/09 08:15:39;;;;;;;;;;;28.10;99.90;;;;;;1899500;76;20437;-81
2021/09/09 08:18:09;;;;;;;;;;;28.00;99.90;;;;;;1896986;76;20225;-81
2021/09/09 08:20:39;;;;;;;;;;;28.00;99.90;;;;;;1877540;76;20198;-81
2021/09/09 08:23:08;;;;;;;;;;;28.00;99.90;;;;;;1888108;76;20433;-78
2021/09/09 08:25:38;;;;;;;;;;;28.00;99.90;;;;;;1900435;76;20127;-78
2021/09/09 08:28:09;;;;;;;;;;;28.00;99.90;;;;;;1899690;74;20187;-77
2021/09/09 08:30:39;;;;;;;;;;;27.90;99.90;;;;;;1867387;77;20129;-78
2021/09/09 08:33:08;;;;;;;;;;;27.90;99.90;;;;;;1850122;77;20118;-80
2021/09/09 08:35:40;;;;;;;;;;;27.90;99.90;;;;;;1856177;77;20425;-79
2021/09/09 08:38:09;;;;;;;;;;;27.80;99.90;;;;;;1895211;76;20286;-78
2021/09/09 08:40:39;;;;;;;;;;;27.80;99.90;;;;;;1899573;76;20146;-79
2021/09/09 08:43:09;;;;;;;;;;;27.70;99.90;;;;;;1899423;76;20115;-79
2021/09/09 08:45:38;;;;;;;;;;;27.70;99.90;;;;;;1899322;76;20182;-79
2021/09/09 08:48:09;;;;;;;;;;;27.70;99.90;;;;;;1884461;76;20479;-78
2021/09/09 08:50:38;;;;;;;;;;;27.70;99.90;;;;;;1892975;75;20409;-79
2021/09/09 08:53:09;;;;;;;;;;;27.70;99.90;;;;;;1891461;75;20305;-81
2021/09/09 08:55:38;;;;;;;;;;;27.70;99.90;;;;;;1890061;75;20130;-79
2021/09/09 08:58:08;;;;;;;;;;;27.70;99.90;;;;;;1894205;75;20270;-80
2021/09/09 09:00:38;;;;;;;;;;;27.60;99.90;;;;;;1888724;75;20225;-80
2021/09/09 09:03:08;;;;;;;;;;;27.60;99.90;;;;;;1903507;75;20237;-80
2021/09/09 09:05:39;;;;;;;;;;;27.60;99.90;;;;;;1886832;74;20158;-80
2021/09/09 09:08:09;;;;;;;;;;;27.60;99.90;;;;;;1894202;75;20181;-81
2021/09/09 09:10:38;;;;;;;;;;;27.60;99.90;;;;;;1905320;75;20406;-80
2021/09/09 09:13:09;;;;;;;;;;;27.60;99.90;;;;;;1880235;75;20166;-83
2021/09/09 09:15:40;;;;;;;;;;;27.60;99.90;;;;;;1920249;73;20448;-82
2021/09/09 09:18:11;;;;;;;;;;;27.60;99.90;;;;;;1924492;75;20156;-81
2021/09/09 09:20:42;;;;;;;;;;;27.60;99.90;;;;;;1924253;74;20126;-81
2021/09/09 09:23:14;;;;;;;;;;;27.50;99.90;;;;;;1924464;75;20196;-82
2021/09/09 09:25:45;;;;;;;;;;;27.50;99.90;;;;;;1932795;74;20109;-80
2021/09/09 09:28:15;;;;;;;;;;;27.50;99.90;;;;;;1898439;76;20250;-80
2021/09/09 09:30:46;;;;;;;;;;;27.50;99.90;;;;;;1924038;74;20473;-79
2021/09/09 09:33:17;;;;;;;;;;;27.50;99.90;;;;;;1892324;75;20127;-80
2021/09/09 09:35:47;;;;;;;;;;;27.40;99.90;;;;;;1885037;75;20166;-79
2021/09/09 09:38:18;;;;;;;;;;;27.40;99.90;;;;;;1847439;78;20454;-78
2021/09/09 09:40:53;;;;;;;;;;;27.40;99.90;;;;;;1915692;74;20451;-81
2021/09/09 09:43:20;;;;;;;;;;;27.40;99.90;;;;;;1924584;75;20433;-81
2021/09/09 09:45:52;;;;;;;;;;;27.40;99.90;;;;;;1921714;74;20183;-80
2021/09/09 09:48:24;;;;;;;;;;;27.40;99.90;;;;;;1938369;73;20154;-80
2021/09/09 09:50:54;;;;;;;;;;;27.40;99.90;;;;;;1937758;73;20457;-81
2021/09/09 09:53:24;;;;;;;;;;;27.40;99.90;;;;;;1930751;73;20492;-81
2021/09/09 09:55:54;;;;;;;;;;;27.40;99.90;;;;;;1919575;74;20122;-82
2021/09/09 09:58:24;;;;;;;;;;;27.40;99.90;;;;;;1929052;74;20153;-80
2021/09/09 10:00:56;;;;;;;;;;;27.30;99.90;;;;;;1922139;74;20385;-78
2021/09/09 10:03:26;;;;;;;;;;;27.40;99.90;;;;;;1924557;74;20118;-82
2021/09/09 10:05:57;;;;;;;;;;;27.40;99.90;;;;;;1935312;73;20180;-82
2021/09/09 10:08:27;;;;;;;;;;;27.40;99.90;;;;;;1940242;74;20168;-85
2021/09/09 10:11:00;;;;;;;;;;;27.30;99.90;;;;;;1908620;74;20228;-81
2021/09/09 10:13:30;;;;;;;;;;;27.40;99.90;;;;;;1921717;74;20167;-83
2021/09/09 10:16:00;;;;;;;;;;;27.40;99.90;;;;;;1926846;74;20222;-81
2021/09/09 10:18:37;;;;;;;;;;;27.40;99.90;;;;;;1936062;74;20211;-89
2021/09/09 10:21:07;;;;;;;;;;;27.30;99.90;;;;;;1912822;74;20124;-94
2021/09/09 10:23:37;;;;;;;;;;;27.30;99.90;;;;;;1910543;74;20189;-94
2021/09/09 10:26:07;;;;;;;;;;;27.30;99.90;;;;;;1923020;75;20126;-96
2021/09/09 10:28:48;;;;;;;;;;;27.30;99.90;;;;;;1923053;75;20170;-95
2021/09/09 10:31:13;;;;;;;;;;;27.30;99.90;;;;;;1900823;74;20495;-96
2021/09/09 10:33:45;;;;;;;;;;;27.30;99.90;;;;;;1922409;74;20157;-94
2021/09/09 10:36:16;;;;;;;;;;;27.30;99.90;;;;;;1922096;75;20229;-93
2021/09/09 10:38:46;;;;;;;;;;;27.30;99.90;;;;;;1914664;75;20208;-94
2021/09/09 10:41:17;;;;;;;;;;;27.30;99.90;;;;;;1896751;76;20146;-95
2021/09/09 10:43:48;;;;;;;;;;;27.30;99.90;;;;;;1900036;75;20182;-95
2021/09/09 10:46:19;;;;;;;;;;;27.30;99.90;;;;;;1901493;76;20167;-95
2021/09/09 10:48:50;;;;;;;;;;;27.30;99.90;;;;;;1901498;76;20127;-93
2021/09/09 10:51:20;;;;;;;;;;;27.30;99.90;;;;;;1884352;74;20233;-91
2021/09/09 10:53:51;;;;;;;;;;;27.20;99.90;;;;;;1904228;72;20428;-94
2021/09/09 10:56:22;;;;;;;;;;;27.20;99.90;;;;;;1882676;72;20105;-92
2021/09/09 10:58:53;;;;;;;;;;;27.30;99.90;;;;;;1870450;72;20164;-94
2021/09/09 11:01:24;;;;;;;;;;;27.20;99.90;;;;;;1898596;70;20096;-95
2021/09/09 11:03:54;;;;;;;;;;;27.30;99.90;;;;;;1903203;71;20464;-91
2021/09/09 11:06:25;;;;;;;;;;;27.20;99.90;;;;;;1915905;71;20186;-92
2021/09/09 11:08:57;;;;;;;;;;;27.20;99.90;;;;;;1931149;73;20089;-94
2021/09/09 11:11:28;;;;;;;;;;;27.20;99.90;;;;;;1931160;73;20113;-93
2021/09/09 11:13:59;;;;;;;;;;;27.10;99.90;;;;;;1906099;73;20130;-95
2021/09/09 11:16:30;;;;;;;;;;;27.10;99.90;;;;;;1914088;75;20107;-92
2021/09/09 11:19:01;;;;;;;;;;;27.10;99.90;;;;;;1914842;75;20232;-96
2021/09/09 11:21:35;;;;;;;;;;;27.10;99.90;;;;;;1916833;75;20176;-94
2021/09/09 11:24:04;;;;;;;;;;;27.10;99.90;;;;;;1917266;73;20145;-96
2021/09/09 11:26:41;;;;;;;;;;;27.10;99.90;;;;;;1918225;73;20145;-94
2021/09/09 11:29:17;;;;;;;;;;;27.00;99.90;;;;;;1894952;75;20087;-95
2021/09/09 11:31:48;;;;;;;;;;;27.10;99.90;;;;;;1910723;75;20134;-94
2021/09/09 11:34:20;;;;;;;;;;;27.00;99.90;;;;;;1915386;74;20169;-95
2021/09/09 11:36:51;;;;;;;;;;;27.00;99.90;;;;;;1915550;74;20139;-95
2021/09/09 11:39:22;;;;;;;;;;;27.00;99.90;;;;;;1916066;74;20114;-94
2021/09/09 11:41:54;;;;;;;;;;;27.00;99.90;;;;;;1916253;74;20146;-91
2021/09/09 11:44:26;;;;;;;;;;;27.00;99.90;;;;;;1916226;74;20119;-91
2021/09/09 11:46:57;;;;;;;;;;;27.00;99.90;;;;;;1901606;73;20131;-94
2021/09/09 11:49:29;;;;;;;;;;;26.90;99.90;;;;;;1897671;73;20112;-95
2021/09/09 11:52:00;;;;;;;;;;;26.90;99.90;;;;;;1896084;73;20182;-92
2021/09/09 11:54:31;;;;;;;;;;;26.80;99.90;;;;;;1897290;73;20149;-93
2021/09/09 11:57:05;;;;;;;;;;;26.80;99.90;;;;;;1908183;70;20150;-94
2021/09/09 11:59:35;;;;;;;;;;;26.70;99.90;;;;;;1911377;73;20079;-92
2021/09/09 12:02:07;;;;;;;;;;;26.60;99.90;;;;;;1910059;72;20091;-93
2021/09/09 12:04:39;;;;;;;;;;;26.60;99.90;;;;;;1910606;73;20115;-92
2021/09/09 12:09:54;;;;;;;;;;;26.50;99.90;;;;;;2021018;71;20254;-91
2021/09/09 12:12:33;;;;;;;;;;;26.50;99.90;;;;;;2023697;71;20172;-91
2021/09/09 12:15:08;;;;;;;;;;;26.40;99.90;;;;;;2023459;71;20153;-92
2021/09/09 12:17:59;;;;;;;;;;;26.30;99.90;;;;;;1995254;69;20170;-93
2021/09/09 12:20:33;;;;;;;;;;;26.20;99.90;;;;;;2004878;69;20286;-91
2021/09/09 12:23:08;;;;;;;;;;;26.10;99.90;;;;;;1991358;71;20143;-91
2021/09/09 12:25:57;;;;;;;;;;;26.10;99.90;;;;;;1978537;71;20232;-92
2021/09/09 12:28:28;;;;;;;;;;;26.00;99.90;;;;;;1969279;71;20238;-93
2021/09/09 12:31:18;;;;;;;;;;;25.90;99.90;;;;;;2022285;71;20425;-92
2021/09/09 12:33:52;;;;;;;;;;;;;;;;;;;;;
2021/09/09 12:36:21;;;;;;;;;;;25.90;99.90;;;;;;2002634;71;20204;-94
2021/09/09 12:38:55;;;;;;;;;;;25.90;99.90;;;;;;2012888;71;20134;-92
2021/09/09 12:41:23;;;;;;;;;;;25.80;99.90;;;;;;2007368;71;20124;-90
2021/09/09 12:44:04;;;;;;;;;;;25.80;99.90;;;;;;1953144;72;20283;-92
2021/09/09 12:46:45;;;;;;;;;;;25.80;99.90;;;;;;1987561;72;20215;-91
2021/09/09 12:49:22;;;;;;;;;;;25.70;99.90;;;;;;1980513;71;20216;-92
2021/09/09 12:51:47;;;;;;;;;;;25.60;99.90;;;;;;1969518;72;20163;-91
2021/09/09 12:54:19;;;;;;;;;;;25.60;99.90;;;;;;2007064;71;20179;-91
2021/09/09 12:56:53;;;;;;;;;;;25.60;99.90;;;;;;2000585;71;20145;-90
2021/09/09 12:59:26;;;;;;;;;;;25.50;99.90;;;;;;2023403;71;20141;-91
2021/09/09 13:03:13;;;;;;;;;;;25.50;99.90;;;;;;1989686;71;20430;-92
2021/09/09 13:05:09;;;;;;;;;;;25.50;99.90;;;;;;2002575;71;20198;-91
2021/09/09 13:07:42;;;;;;;;;;;25.40;99.90;;;;;;1992091;71;20211;-89
2021/09/09 13:10:19;;;;;;;;;;;25.50;99.90;;;;;;2019555;70;20677;-90
2021/09/09 13:16:03;;;;;;;;;;;25.50;99.90;;;;;;1899125;75;20218;-91
2021/09/09 13:18:37;;;;;;;;;;;25.50;99.90;;;;;;1909548;75;20273;-90
2021/09/09 13:21:25;;;;;;;;;;;25.50;99.90;;;;;;1910511;75;20211;-91
2021/09/09 13:23:54;;;;;;;;;;;25.50;99.90;;;;;;1901081;73;20539;-92
2021/09/09 13:26:30;;;;;;;;;;;25.50;99.90;;;;;;1875557;76;20142;-88
2021/09/09 13:29:02;;;;;;;;;;;25.60;99.90;;;;;;1875502;76;20181;-89
2021/09/09 13:31:40;;;;;;;;;;;25.60;99.90;;;;;;1873380;76;20163;-88
2021/09/09 13:37:02;;;;;;;;;;;25.70;99.90;;;;;;1821439;77;20281;-87
2021/09/09 13:39:36;;;;;;;;;;;25.70;99.90;;;;;;1873609;76;20223;-88
2021/09/09 13:42:06;;;;;;;;;;;25.70;99.90;;;;;;1874329;76;20407;-90
2021/09/09 13:44:36;;;;;;;;;;;25.70;99.90;;;;;;1861724;77;20515;-90
2021/09/09 13:47:15;;;;;;;;;;;25.70;99.90;;;;;;1861454;77;20168;-89
2021/09/09 13:49:40;;;;;;;;;;;25.70;99.90;;;;;;1859628;77;20250;-90
2021/09/09 13:52:11;;;;;;;;;;;25.70;99.90;;;;;;1861606;77;20172;-90
2021/09/09 13:54:43;;;;;;;;;;;25.80;99.90;;;;;;1858519;77;20247;-87
2021/09/09 13:57:17;;;;;;;;;;;25.80;99.90;;;;;;1850261;77;20177;-89
2021/09/09 13:59:58;;;;;;;;;;;25.80;99.90;;;;;;1833436;77;20176;-88
2021/09/09 14:02:33;;;;;;;;;;;25.80;99.90;;;;;;1830046;77;20216;-89
2021/09/09 14:05:03;;;;;;;;;;;25.80;99.90;;;;;;1864089;76;20173;-90
2021/09/09 14:07:34;;;;;;;;;;;25.80;99.90;;;;;;1870970;75;20538;-88
2021/09/09 14:10:06;;;;;;;;;;;25.80;99.90;;;;;;1863251;77;20199;-89
2021/09/09 14:12:36;;;;;;;;;;;25.80;99.90;;;;;;1933956;74;20243;-87
2021/09/09 14:15:07;;;;;;;;;;;25.80;99.90;;;;;;2012000;71;20199;-92
2021/09/09 14:17:37;;;;;;;;;;;25.80;99.90;;;;;;2000468;71;20140;-88
2021/09/09 14:20:08;;;;;;;;;;;25.80;99.90;;;;;;1997471;71;20144;-88
2021/09/09 14:22:38;;;;;;;;;;;25.80;99.90;;;;;;1990637;71;20434;-87
2021/09/09 14:25:12;;;;;;;;;;;25.80;99.90;;;;;;1989104;71;20128;-89
2021/09/09 14:27:43;;;;;;;;;;;25.80;99.90;;;;;;1992966;71;20202;-89
2021/09/09 14:30:15;;;;;;;;;;;25.80;99.90;;;;;;2024679;71;20177;-87
2021/09/09 14:32:45;;;;;;;;;;;25.80;99.90;;;;;;2024791;71;20169;-88
2021/09/09 14:35:15;;;;;;;;;;;25.80;99.90;;;;;;2024909;71;20421;-87
2021/09/09 14:37:48;;;;;;;;;;;25.80;99.90;;;;;;2024887;71;20219;-88
2021/09/09 14:40:18;;;;;;;;;;;25.80;99.90;;;;;;2025048;71;20126;-87
2021/09/09 14:42:48;;;;;;;;;;;25.80;99.90;;;;;;2025165;71;20189;-87
2021/09/09 14:45:20;;;;;;;;;;;25.80;99.90;;;;;;2025269;71;20462;-87
2021/09/09 14:47:53;;;;;;;;;;;25.80;99.90;;;;;;2025616;71;20168;-89
2021/09/09 14:50:23;;;;;;;;;;;25.80;99.90;;;;;;2026125;71;20138;-88
2021/09/09 14:52:54;;;;;;;;;;;25.80;99.90;;;;;;2026292;71;20130;-89
2021/09/09 14:55:24;;;;;;;;;;;25.80;99.90;;;;;;2026068;71;20138;-89
2021/09/09 14:57:54;;;;;;;;;;;25.80;99.90;;;;;;2026110;71;20197;-88
2021/09/09 15:00:24;;;;;;;;;;;25.80;99.90;;;;;;2026135;71;20138;-90
2021/09/09 15:03:00;;;;;;;;;;;25.80;99.90;;;;;;2025967;71;20126;-85